sensor_id;sensor_type;location;lat;lon;timestamp;pressure;altitude;pressure_sealevel;temperature;humidity
50702;BME280;36670;50.094;8.496;2023-05-16T00:02:01;100055.75;;;15.72;62.20
50702;BME280;36670;50.094;8.496;2023-05-16T00:04:27;100076.63;;;15.69;62.19
50702;BME280;36670;50.094;8.496;2023-05-16T00:06:52;100071.06;;;15.69;62.51
50702;BME280;36670;50.094;8.496;2023-05-16T00:09:18;100076.28;;;15.47;62.88
50702;BME280;36670;50.094;8.496;2023-05-16T00:11:44;100084.59;;;15.52;63.44
50702;BME280;36670;50.094;8.496;2023-05-16T00:14:09;100095.00;;;15.36;63.39
50702;BME280;36670;50.094;8.496;2023-05-16T00:16:35;100085.44;;;15.47;62.76
50702;BME280;36670;50.094;8.496;2023-05-16T00:19:01;100080.97;;;15.51;63.03
50702;BME280;36670;50.094;8.496;2023-05-16T00:21:28;100077.47;;;15.41;63.62
50702;BME280;36670;50.094;8.496;2023-05-16T00:23:53;100075.56;;;15.65;62.63
50702;BME280;36670;50.094;8.496;2023-05-16T00:26:18;100078.25;;;15.46;62.83
50702;BME280;36670;50.094;8.496;2023-05-16T00:28:44;100079.88;;;15.47;63.06
50702;BME280;36670;50.094;8.496;2023-05-16T00:31:10;100083.66;;;15.32;64.28
50702;BME280;36670;50.094;8.496;2023-05-16T00:33:35;100081.19;;;15.26;63.59
50702;BME280;36670;50.094;8.496;2023-05-16T00:36:00;100092.72;;;15.09;65.16
50702;BME280;36670;50.094;8.496;2023-05-16T00:38:25;100098.63;;;14.92;65.17
50702;BME280;36670;50.094;8.496;2023-05-16T00:40:50;100083.72;;;14.72;66.46
50702;BME280;36670;50.094;8.496;2023-05-16T00:43:16;100092.84;;;14.83;66.33
50702;BME280;36670;50.094;8.496;2023-05-16T00:45:41;100100.91;;;14.84;66.49
50702;BME280;36670;50.094;8.496;2023-05-16T00:48:06;100097.31;;;14.84;66.42
50702;BME280;36670;50.094;8.496;2023-05-16T00:50:33;100105.84;;;14.93;65.77
50702;BME280;36670;50.094;8.496;2023-05-16T00:52:58;100104.06;;;15.12;65.38
50702;BME280;36670;50.094;8.496;2023-05-16T00:55:23;100108.31;;;15.05;65.27
50702;BME280;36670;50.094;8.496;2023-05-16T00:57:49;100102.97;;;15.13;65.78
50702;BME280;36670;50.094;8.496;2023-05-16T01:00:14;100106.81;;;15.23;65.04
50702;BME280;36670;50.094;8.496;2023-05-16T01:02:39;100098.97;;;15.25;65.09
50702;BME280;36670;50.094;8.496;2023-05-16T01:05:05;100108.44;;;15.24;64.71
50702;BME280;36670;50.094;8.496;2023-05-16T01:07:32;100111.03;;;15.10;65.62
50702;BME280;36670;50.094;8.496;2023-05-16T01:09:57;100109.06;;;15.15;64.79
50702;BME280;36670;50.094;8.496;2023-05-16T01:12:27;100110.88;;;15.35;64.30
50702;BME280;36670;50.094;8.496;2023-05-16T01:15:13;100115.75;;;15.49;64.24
50702;BME280;36670;50.094;8.496;2023-05-16T01:28:08;100119.81;;;15.32;63.82
50702;BME280;36670;50.094;8.496;2023-05-16T01:30:34;100123.75;;;15.21;64.69
50702;BME280;36670;50.094;8.496;2023-05-16T01:33:00;100120.75;;;15.12;64.44
50702;BME280;36670;50.094;8.496;2023-05-16T01:35:25;100127.97;;;15.18;64.37
50702;BME280;36670;50.094;8.496;2023-05-16T01:38:04;100119.97;;;15.46;63.53
50702;BME280;36670;50.094;8.496;2023-05-16T01:40:37;100122.81;;;15.36;64.03
50702;BME280;36670;50.094;8.496;2023-05-16T01:43:04;100121.06;;;15.06;64.79
50702;BME280;36670;50.094;8.496;2023-05-16T01:45:31;100119.97;;;15.01;64.03
50702;BME280;36670;50.094;8.496;2023-05-16T01:48:02;100133.31;;;15.05;64.77
50702;BME280;36670;50.094;8.496;2023-05-16T01:50:29;100123.63;;;14.97;64.91
50702;BME280;36670;50.094;8.496;2023-05-16T01:52:59;100118.25;;;15.16;63.48
50702;BME280;36670;50.094;8.496;2023-05-16T01:57:54;100122.84;;;14.86;65.16
50702;BME280;36670;50.094;8.496;2023-05-16T02:00:19;100129.47;;;15.00;64.08
50702;BME280;36670;50.094;8.496;2023-05-16T02:02:45;100128.69;;;14.90;64.78
50702;BME280;36670;50.094;8.496;2023-05-16T02:05:10;100120.44;;;14.69;65.63
50702;BME280;36670;50.094;8.496;2023-05-16T02:07:35;100116.25;;;14.77;64.39
50702;BME280;36670;50.094;8.496;2023-05-16T02:10:00;100103.38;;;14.86;64.09
50702;BME280;36670;50.094;8.496;2023-05-16T02:12:26;100110.69;;;14.77;64.65
50702;BME280;36670;50.094;8.496;2023-05-16T02:14:51;100116.53;;;14.75;64.18
50702;BME280;36670;50.094;8.496;2023-05-16T02:17:16;100114.59;;;14.65;64.05
50702;BME280;36670;50.094;8.496;2023-05-16T02:19:41;100111.84;;;14.55;64.96
50702;BME280;36670;50.094;8.496;2023-05-16T02:22:06;100113.19;;;14.68;64.62
50702;BME280;36670;50.094;8.496;2023-05-16T02:24:32;100123.81;;;14.50;64.36
50702;BME280;36670;50.094;8.496;2023-05-16T02:26:57;100127.19;;;14.42;65.56
50702;BME280;36670;50.094;8.496;2023-05-16T02:29:22;100121.91;;;14.36;65.72
50702;BME280;36670;50.094;8.496;2023-05-16T02:31:47;100126.94;;;14.28;66.08
50702;BME280;36670;50.094;8.496;2023-05-16T02:34:12;100121.09;;;14.35;65.07
50702;BME280;36670;50.094;8.496;2023-05-16T02:36:38;100122.44;;;14.38;65.56
50702;BME280;36670;50.094;8.496;2023-05-16T02:39:03;100133.03;;;14.30;65.12
50702;BME280;36670;50.094;8.496;2023-05-16T02:41:28;100133.31;;;14.29;65.10
50702;BME280;36670;50.094;8.496;2023-05-16T02:43:53;100135.75;;;14.46;64.60
50702;BME280;36670;50.094;8.496;2023-05-16T02:46:19;100141.25;;;14.72;64.07
50702;BME280;36670;50.094;8.496;2023-05-16T02:48:44;100136.81;;;14.76;64.14
50702;BME280;36670;50.094;8.496;2023-05-16T02:51:10;100139.81;;;14.79;63.53
50702;BME280;36670;50.094;8.496;2023-05-16T02:53:35;100144.88;;;15.22;62.90
50702;BME280;36670;50.094;8.496;2023-05-16T02:56:00;100141.09;;;15.08;63.12
50702;BME280;36670;50.094;8.496;2023-05-16T02:58:25;100139.81;;;15.29;62.64
50702;BME280;36670;50.094;8.496;2023-05-16T03:00:50;100140.31;;;15.42;61.95
50702;BME280;36670;50.094;8.496;2023-05-16T03:03:17;100145.38;;;15.29;62.37
50702;BME280;36670;50.094;8.496;2023-05-16T03:05:42;100155.78;;;15.18;62.44
50702;BME280;36670;50.094;8.496;2023-05-16T03:08:07;100148.16;;;14.84;63.32
50702;BME280;36670;50.094;8.496;2023-05-16T03:10:32;100145.44;;;14.74;63.65
50702;BME280;36670;50.094;8.496;2023-05-16T03:12:57;100136.84;;;15.15;62.81
50702;BME280;36670;50.094;8.496;2023-05-16T03:15:22;100158.38;;;14.99;62.45
50702;BME280;36670;50.094;8.496;2023-05-16T03:17:48;100151.09;;;15.09;62.26
50702;BME280;36670;50.094;8.496;2023-05-16T03:20:13;100147.97;;;15.15;62.06
50702;BME280;36670;50.094;8.496;2023-05-16T03:22:39;100148.03;;;15.10;62.32
50702;BME280;36670;50.094;8.496;2023-05-16T03:25:04;100151.41;;;15.02;63.23
50702;BME280;36670;50.094;8.496;2023-05-16T03:27:30;100157.00;;;14.92;63.27
50702;BME280;36670;50.094;8.496;2023-05-16T03:29:55;100150.47;;;14.67;63.77
50702;BME280;36670;50.094;8.496;2023-05-16T03:32:20;100148.34;;;15.04;63.52
50702;BME280;36670;50.094;8.496;2023-05-16T03:34:45;100148.88;;;15.06;62.30
50702;BME280;36670;50.094;8.496;2023-05-16T03:37:11;100149.66;;;15.11;62.91
50702;BME280;36670;50.094;8.496;2023-05-16T03:39:38;100153.72;;;14.84;63.22
50702;BME280;36670;50.094;8.496;2023-05-16T03:42:04;100154.56;;;14.80;63.86
50702;BME280;36670;50.094;8.496;2023-05-16T03:44:29;100158.22;;;14.75;63.53
50702;BME280;36670;50.094;8.496;2023-05-16T03:46:55;100148.44;;;14.78;63.95
50702;BME280;36670;50.094;8.496;2023-05-16T03:49:24;100155.97;;;14.77;64.04
50702;BME280;36670;50.094;8.496;2023-05-16T03:51:49;100158.69;;;14.88;63.58
50702;BME280;36670;50.094;8.496;2023-05-16T03:54:14;100161.16;;;14.99;63.35
50702;BME280;36670;50.094;8.496;2023-05-16T03:56:40;100156.38;;;15.10;63.26
50702;BME280;36670;50.094;8.496;2023-05-16T03:59:05;100165.47;;;15.21;63.01
50702;BME280;36670;50.094;8.496;2023-05-16T04:01:30;100163.16;;;15.33;62.00
50702;BME280;36670;50.094;8.496;2023-05-16T04:03:56;100159.84;;;15.36;61.50
50702;BME280;36670;50.094;8.496;2023-05-16T04:06:21;100165.34;;;15.42;61.73
50702;BME280;36670;50.094;8.496;2023-05-16T04:08:46;100154.38;;;15.61;61.03
50702;BME280;36670;50.094;8.496;2023-05-16T04:11:11;100173.63;;;15.52;61.02
50702;BME280;36670;50.094;8.496;2023-05-16T04:13:36;100178.06;;;15.53;60.87
50702;BME280;36670;50.094;8.496;2023-05-16T04:16:01;100177.97;;;15.68;60.63
50702;BME280;36670;50.094;8.496;2023-05-16T04:18:27;100179.44;;;15.56;61.29
50702;BME280;36670;50.094;8.496;2023-05-16T04:20:52;100181.94;;;15.57;61.40
50702;BME280;36670;50.094;8.496;2023-05-16T04:23:17;100185.25;;;15.59;61.31
50702;BME280;36670;50.094;8.496;2023-05-16T04:25:42;100177.13;;;15.68;60.45
50702;BME280;36670;50.094;8.496;2023-05-16T04:28:07;100174.88;;;15.30;61.28
50702;BME280;36670;50.094;8.496;2023-05-16T04:30:33;100178.63;;;15.10;62.14
50702;BME280;36670;50.094;8.496;2023-05-16T04:32:58;100179.34;;;15.26;60.94
50702;BME280;36670;50.094;8.496;2023-05-16T04:35:23;100178.72;;;15.40;60.99
50702;BME280;36670;50.094;8.496;2023-05-16T04:37:48;100177.72;;;15.20;61.41
50702;BME280;36670;50.094;8.496;2023-05-16T04:40:13;100179.25;;;15.42;60.97
50702;BME280;36670;50.094;8.496;2023-05-16T04:42:39;100177.41;;;15.66;59.98
50702;BME280;36670;50.094;8.496;2023-05-16T04:45:04;100176.72;;;15.85;59.77
50702;BME280;36670;50.094;8.496;2023-05-16T04:47:30;100170.97;;;15.71;59.51
50702;BME280;36670;50.094;8.496;2023-05-16T04:49:56;100177.38;;;15.32;60.69
50702;BME280;36670;50.094;8.496;2023-05-16T04:52:21;100175.06;;;14.99;61.46
50702;BME280;36670;50.094;8.496;2023-05-16T04:54:49;100181.53;;;15.29;60.62
50702;BME280;36670;50.094;8.496;2023-05-16T04:57:14;100181.81;;;15.73;60.09
50702;BME280;36670;50.094;8.496;2023-05-16T04:59:39;100181.44;;;15.50;59.74
50702;BME280;36670;50.094;8.496;2023-05-16T05:02:04;100187.00;;;15.45;60.15
50702;BME280;36670;50.094;8.496;2023-05-16T05:04:31;100198.00;;;15.65;60.13
50702;BME280;36670;50.094;8.496;2023-05-16T05:06:56;100198.13;;;15.50;60.64
50702;BME280;36670;50.094;8.496;2023-05-16T05:09:21;100203.66;;;15.55;59.94
50702;BME280;36670;50.094;8.496;2023-05-16T05:11:47;100203.56;;;15.21;61.64
50702;BME280;36670;50.094;8.496;2023-05-16T05:14:12;100198.78;;;15.36;61.14
50702;BME280;36670;50.094;8.496;2023-05-16T05:16:37;100202.31;;;15.47;61.02
50702;BME280;36670;50.094;8.496;2023-05-16T05:19:02;100205.47;;;15.30;61.35
50702;BME280;36670;50.094;8.496;2023-05-16T05:21:28;100205.84;;;15.58;61.08
50702;BME280;36670;50.094;8.496;2023-05-16T05:23:54;100208.13;;;15.51;60.41
50702;BME280;36670;50.094;8.496;2023-05-16T05:26:19;100218.38;;;15.61;59.89
50702;BME280;36670;50.094;8.496;2023-05-16T05:28:46;100217.56;;;15.55;60.22
50702;BME280;36670;50.094;8.496;2023-05-16T05:31:11;100210.09;;;15.50;60.29
50702;BME280;36670;50.094;8.496;2023-05-16T05:33:36;100219.19;;;15.61;59.87
50702;BME280;36670;50.094;8.496;2023-05-16T05:36:01;100223.13;;;15.55;60.79
50702;BME280;36670;50.094;8.496;2023-05-16T05:38:26;100218.56;;;15.80;59.57
50702;BME280;36670;50.094;8.496;2023-05-16T05:40:52;100223.06;;;15.65;59.66
50702;BME280;36670;50.094;8.496;2023-05-16T05:43:17;100244.63;;;15.39;60.28
50702;BME280;36670;50.094;8.496;2023-05-16T05:45:42;100233.91;;;15.17;59.80
50702;BME280;36670;50.094;8.496;2023-05-16T05:48:08;100234.09;;;15.36;59.49
50702;BME280;36670;50.094;8.496;2023-05-16T05:50:34;100238.84;;;15.30;60.09
50702;BME280;36670;50.094;8.496;2023-05-16T05:52:59;100240.56;;;15.21;59.70
50702;BME280;36670;50.094;8.496;2023-05-16T05:55:25;100248.28;;;15.34;60.20
50702;BME280;36670;50.094;8.496;2023-05-16T05:57:50;100245.31;;;15.65;59.27
50702;BME280;36670;50.094;8.496;2023-05-16T06:00:15;100257.53;;;15.80;58.46
50702;BME280;36670;50.094;8.496;2023-05-16T06:02:41;100253.78;;;15.45;57.53
50702;BME280;36670;50.094;8.496;2023-05-16T06:05:06;100257.06;;;15.57;57.42
50702;BME280;36670;50.094;8.496;2023-05-16T06:07:31;100256.41;;;15.76;56.86
50702;BME280;36670;50.094;8.496;2023-05-16T06:09:57;100271.09;;;15.86;56.50
50702;BME280;36670;50.094;8.496;2023-05-16T06:12:22;100280.81;;;15.39;56.19
50702;BME280;36670;50.094;8.496;2023-05-16T06:14:47;100276.16;;;15.24;57.23
50702;BME280;36670;50.094;8.496;2023-05-16T06:17:12;100283.09;;;15.27;56.47
50702;BME280;36670;50.094;8.496;2023-05-16T06:19:37;100279.88;;;15.59;55.92
50702;BME280;36670;50.094;8.496;2023-05-16T06:22:02;100282.97;;;15.52;56.39
50702;BME280;36670;50.094;8.496;2023-05-16T06:24:28;100276.69;;;15.31;55.77
50702;BME280;36670;50.094;8.496;2023-05-16T06:26:53;100293.66;;;15.85;55.14
50702;BME280;36670;50.094;8.496;2023-05-16T06:29:19;100287.84;;;15.76;54.85
50702;BME280;36670;50.094;8.496;2023-05-16T06:31:44;100291.59;;;15.51;55.91
50702;BME280;36670;50.094;8.496;2023-05-16T06:34:10;100294.66;;;15.55;54.74
50702;BME280;36670;50.094;8.496;2023-05-16T06:36:35;100304.72;;;15.45;55.23
50702;BME280;36670;50.094;8.496;2023-05-16T06:39:01;100299.19;;;15.35;55.80
50702;BME280;36670;50.094;8.496;2023-05-16T06:41:26;100310.69;;;15.08;56.28
50702;BME280;36670;50.094;8.496;2023-05-16T06:43:51;100316.59;;;14.85;56.58
50702;BME280;36670;50.094;8.496;2023-05-16T06:46:16;100309.56;;;15.14;55.73
50702;BME280;36670;50.094;8.496;2023-05-16T06:48:42;100303.69;;;15.21;55.70
50702;BME280;36670;50.094;8.496;2023-05-16T06:51:07;100319.34;;;15.01;55.10
50702;BME280;36670;50.094;8.496;2023-05-16T06:53:32;100317.94;;;15.04;55.96
50702;BME280;36670;50.094;8.496;2023-05-16T06:55:57;100324.88;;;15.06;54.74
50702;BME280;36670;50.094;8.496;2023-05-16T06:58:22;100330.16;;;14.97;55.19
50702;BME280;36670;50.094;8.496;2023-05-16T07:00:48;100326.28;;;14.98;55.42
50702;BME280;36670;50.094;8.496;2023-05-16T07:03:13;100330.19;;;14.82;55.46
50702;BME280;36670;50.094;8.496;2023-05-16T07:05:38;100327.38;;;15.02;55.56
50702;BME280;36670;50.094;8.496;2023-05-16T07:08:03;100344.63;;;14.94;55.75
50702;BME280;36670;50.094;8.496;2023-05-16T07:10:29;100339.66;;;14.91;55.84
50702;BME280;36670;50.094;8.496;2023-05-16T07:12:54;100342.44;;;14.60;56.96
50702;BME280;36670;50.094;8.496;2023-05-16T07:15:20;100348.28;;;14.84;55.89
50702;BME280;36670;50.094;8.496;2023-05-16T07:17:45;100359.06;;;15.12;55.71
50702;BME280;36670;50.094;8.496;2023-05-16T07:20:10;100357.63;;;15.19;55.87
50702;BME280;36670;50.094;8.496;2023-05-16T07:22:38;100362.91;;;15.26;55.10
50702;BME280;36670;50.094;8.496;2023-05-16T07:25:04;100358.72;;;15.34;55.21
50702;BME280;36670;50.094;8.496;2023-05-16T07:27:29;100367.69;;;15.10;56.09
50702;BME280;36670;50.094;8.496;2023-05-16T07:29:56;100378.78;;;15.15;56.07
50702;BME280;36670;50.094;8.496;2023-05-16T07:32:21;100390.69;;;15.47;55.75
50702;BME280;36670;50.094;8.496;2023-05-16T07:34:46;100389.09;;;15.20;55.01
50702;BME280;36670;50.094;8.496;2023-05-16T07:37:11;100394.16;;;14.72;55.32
50702;BME280;36670;50.094;8.496;2023-05-16T07:39:38;100397.44;;;15.10;55.30
50702;BME280;36670;50.094;8.496;2023-05-16T07:42:03;100396.34;;;14.95;54.95
50702;BME280;36670;50.094;8.496;2023-05-16T07:44:28;100403.88;;;14.74;56.49
50702;BME280;36670;50.094;8.496;2023-05-16T07:46:53;100409.41;;;14.79;55.64
50702;BME280;36670;50.094;8.496;2023-05-16T07:49:19;100407.75;;;14.83;55.92
50702;BME280;36670;50.094;8.496;2023-05-16T07:51:44;100417.75;;;15.05;55.47
50702;BME280;36670;50.094;8.496;2023-05-16T07:54:09;100415.53;;;14.97;55.71
50702;BME280;36670;50.094;8.496;2023-05-16T07:56:34;100416.66;;;14.85;55.19
50702;BME280;36670;50.094;8.496;2023-05-16T07:59:00;100424.69;;;14.56;56.24
50702;BME280;36670;50.094;8.496;2023-05-16T08:01:25;100425.69;;;14.14;57.58
50702;BME280;36670;50.094;8.496;2023-05-16T08:03:50;100437.69;;;14.35;56.30
50702;BME280;36670;50.094;8.496;2023-05-16T08:06:17;100434.59;;;14.26;57.38
50702;BME280;36670;50.094;8.496;2023-05-16T08:08:42;100433.28;;;14.60;56.95
50702;BME280;36670;50.094;8.496;2023-05-16T08:11:07;100438.53;;;14.36;56.56
50702;BME280;36670;50.094;8.496;2023-05-16T08:13:32;100441.28;;;14.20;55.71
50702;BME280;36670;50.094;8.496;2023-05-16T08:15:58;100456.22;;;14.14;55.95
50702;BME280;36670;50.094;8.496;2023-05-16T08:18:23;100454.81;;;14.01;56.11
50702;BME280;36670;50.094;8.496;2023-05-16T08:20:48;100455.13;;;14.10;55.93
50702;BME280;36670;50.094;8.496;2023-05-16T08:23:13;100461.72;;;13.93;54.32
50702;BME280;36670;50.094;8.496;2023-05-16T08:25:38;100465.03;;;13.85;54.88
50702;BME280;36670;50.094;8.496;2023-05-16T08:28:04;100467.03;;;14.05;54.51
50702;BME280;36670;50.094;8.496;2023-05-16T08:30:29;100468.13;;;14.04;55.60
50702;BME280;36670;50.094;8.496;2023-05-16T08:32:54;100465.44;;;14.20;55.87
50702;BME280;36670;50.094;8.496;2023-05-16T08:35:19;100466.56;;;14.24;55.04
50702;BME280;36670;50.094;8.496;2023-05-16T08:37:45;100476.22;;;14.11;56.22
50702;BME280;36670;50.094;8.496;2023-05-16T08:40:10;100469.06;;;14.30;55.86
50702;BME280;36670;50.094;8.496;2023-05-16T08:42:36;100483.16;;;14.08;54.51
50702;BME280;36670;50.094;8.496;2023-05-16T08:45:01;100480.63;;;13.96;55.28
50702;BME280;36670;50.094;8.496;2023-05-16T08:47:26;100483.91;;;13.88;55.49
50702;BME280;36670;50.094;8.496;2023-05-16T08:49:54;100478.09;;;13.90;55.44
50702;BME280;36670;50.094;8.496;2023-05-16T08:52:21;100478.09;;;14.00;55.57
50702;BME280;36670;50.094;8.496;2023-05-16T08:54:49;100460.56;;;14.73;56.13
50702;BME280;36670;50.094;8.496;2023-05-16T08:57:14;100467.25;;;14.98;53.85
50702;BME280;36670;50.094;8.496;2023-05-16T08:59:40;100468.34;;;14.92;53.95
50702;BME280;36670;50.094;8.496;2023-05-16T09:02:06;100477.97;;;14.43;53.57
50702;BME280;36670;50.094;8.496;2023-05-16T09:04:31;100476.34;;;14.52;53.76
50702;BME280;36670;50.094;8.496;2023-05-16T09:06:56;100477.50;;;14.66;53.62
50702;BME280;36670;50.094;8.496;2023-05-16T09:09:22;100481.38;;;14.65;54.42
50702;BME280;36670;50.094;8.496;2023-05-16T09:11:47;100481.38;;;14.65;54.89
50702;BME280;36670;50.094;8.496;2023-05-16T09:14:12;100492.28;;;15.03;55.09
50702;BME280;36670;50.094;8.496;2023-05-16T09:16:38;100487.53;;;15.19;53.47
50702;BME280;36670;50.094;8.496;2023-05-16T09:19:03;100484.75;;;15.04;53.78
50702;BME280;36670;50.094;8.496;2023-05-16T09:21:30;100482.78;;;15.50;53.60
50702;BME280;36670;50.094;8.496;2023-05-16T09:24:01;100484.72;;;15.34;53.59
50702;BME280;36670;50.094;8.496;2023-05-16T09:26:27;100481.41;;;15.17;54.02
50702;BME280;36670;50.094;8.496;2023-05-16T09:28:52;100486.44;;;15.05;54.71
50702;BME280;36670;50.094;8.496;2023-05-16T09:31:21;100471.97;;;14.77;55.45
50702;BME280;36670;50.094;8.496;2023-05-16T09:33:47;100483.06;;;15.33;54.59
50702;BME280;36670;50.094;8.496;2023-05-16T09:36:14;100488.63;;;14.97;55.34
50702;BME280;36670;50.094;8.496;2023-05-16T09:38:39;100497.50;;;14.74;55.80
50702;BME280;36670;50.094;8.496;2023-05-16T09:41:04;100499.13;;;14.54;56.07
50702;BME280;36670;50.094;8.496;2023-05-16T09:43:30;100504.09;;;14.47;55.85
50702;BME280;36670;50.094;8.496;2023-05-16T09:45:58;100500.22;;;14.58;56.44
50702;BME280;36670;50.094;8.496;2023-05-16T09:48:23;100500.50;;;14.57;55.76
50702;BME280;36670;50.094;8.496;2023-05-16T09:50:52;100506.34;;;14.45;55.65
50702;BME280;36670;50.094;8.496;2023-05-16T09:53:27;100503.91;;;14.69;56.51
50702;BME280;36670;50.094;8.496;2023-05-16T09:55:59;100502.25;;;14.89;54.68
50702;BME280;36670;50.094;8.496;2023-05-16T09:58:29;100505.59;;;14.80;55.47
50702;BME280;36670;50.094;8.496;2023-05-16T10:00:55;100510.88;;;14.97;53.77
50702;BME280;36670;50.094;8.496;2023-05-16T10:03:21;100509.47;;;14.84;54.90
50702;BME280;36670;50.094;8.496;2023-05-16T10:05:47;100508.63;;;14.74;53.88
50702;BME280;36670;50.094;8.496;2023-05-16T10:08:12;100503.13;;;15.05;53.72
50702;BME280;36670;50.094;8.496;2023-05-16T10:10:39;100498.94;;;15.33;52.89
50702;BME280;36670;50.094;8.496;2023-05-16T10:13:05;100500.59;;;15.13;52.32
50702;BME280;36670;50.094;8.496;2023-05-16T10:15:31;100500.84;;;15.53;51.42
50702;BME280;36670;50.094;8.496;2023-05-16T10:17:57;100505.28;;;15.80;50.75
50702;BME280;36670;50.094;8.496;2023-05-16T10:20:24;100509.88;;;16.15;49.05
50702;BME280;36670;50.094;8.496;2023-05-16T10:22:50;100518.06;;;15.65;48.92
50702;BME280;36670;50.094;8.496;2023-05-16T10:27:51;100507.00;;;15.34;48.29
50702;BME280;36670;50.094;8.496;2023-05-16T10:30:16;100502.50;;;15.59;48.57
50702;BME280;36670;50.094;8.496;2023-05-16T10:32:42;100513.09;;;15.52;49.25
50702;BME280;36670;50.094;8.496;2023-05-16T10:35:07;100513.41;;;15.25;47.79
50702;BME280;36670;50.094;8.496;2023-05-16T10:37:33;100513.94;;;15.16;48.58
50702;BME280;36670;50.094;8.496;2023-05-16T10:39:58;100519.50;;;15.32;47.57
50702;BME280;36670;50.094;8.496;2023-05-16T10:42:25;100510.06;;;15.38;46.84
50702;BME280;36670;50.094;8.496;2023-05-16T10:44:52;100519.22;;;15.33;46.81
50702;BME280;36670;50.094;8.496;2023-05-16T10:47:18;100529.25;;;15.14;46.29
50702;BME280;36670;50.094;8.496;2023-05-16T10:49:43;100506.72;;;15.00;46.27
50702;BME280;36670;50.094;8.496;2023-05-16T10:52:10;100509.78;;;14.88;45.81
50702;BME280;36670;50.094;8.496;2023-05-16T10:54:42;100512.00;;;14.96;45.23
50702;BME280;36670;50.094;8.496;2023-05-16T10:57:11;100513.09;;;15.06;46.19
50702;BME280;36670;50.094;8.496;2023-05-16T10:59:44;100514.72;;;14.65;46.18
50702;BME280;36670;50.094;8.496;2023-05-16T11:02:26;100521.28;;;14.39;46.64
50702;BME280;36670;50.094;8.496;2023-05-16T11:04:53;100521.88;;;14.41;47.22
50702;BME280;36670;50.094;8.496;2023-05-16T11:07:19;100519.78;;;14.94;47.09
50702;BME280;36670;50.094;8.496;2023-05-16T11:09:49;100523.13;;;15.27;47.13
50702;BME280;36670;50.094;8.496;2023-05-16T11:12:16;100526.44;;;15.55;46.77
50702;BME280;36670;50.094;8.496;2023-05-16T11:14:44;100517.84;;;15.41;45.40
50702;BME280;36670;50.094;8.496;2023-05-16T11:17:22;100516.72;;;15.37;45.97
50702;BME280;36670;50.094;8.496;2023-05-16T11:19:48;100523.63;;;15.76;45.00
50702;BME280;36670;50.094;8.496;2023-05-16T11:25:08;100518.66;;;15.42;46.33
50702;BME280;36670;50.094;8.496;2023-05-16T11:27:42;100533.09;;;15.85;45.25
50702;BME280;36670;50.094;8.496;2023-05-16T11:30:14;100517.50;;;15.79;45.36
50702;BME280;36670;50.094;8.496;2023-05-16T11:32:40;100524.75;;;15.75;44.79
50702;BME280;36670;50.094;8.496;2023-05-16T11:35:07;100518.28;;;16.00;45.26
50702;BME280;36670;50.094;8.496;2023-05-16T11:37:32;100507.38;;;16.19;45.74
50702;BME280;36670;50.094;8.496;2023-05-16T11:40:02;100518.94;;;16.42;44.03
50702;BME280;36670;50.094;8.496;2023-05-16T11:42:32;100501.31;;;16.57;44.14
50702;BME280;36670;50.094;8.496;2023-05-16T11:45:04;100506.69;;;16.87;43.04
50702;BME280;36670;50.094;8.496;2023-05-16T11:47:30;100509.38;;;17.03;41.99
50702;BME280;36670;50.094;8.496;2023-05-16T11:49:58;100510.81;;;17.30;43.20
50702;BME280;36670;50.094;8.496;2023-05-16T11:52:24;100504.66;;;17.62;41.60
50702;BME280;36670;50.094;8.496;2023-05-16T11:54:50;100500.84;;;17.23;41.68
50702;BME280;36670;50.094;8.496;2023-05-16T11:57:15;100511.59;;;17.35;40.65
50702;BME280;36670;50.094;8.496;2023-05-16T11:59:41;100504.53;;;17.19;39.10
50702;BME280;36670;50.094;8.496;2023-05-16T12:02:06;100506.78;;;17.46;40.33
50702;BME280;36670;50.094;8.496;2023-05-16T12:04:33;100498.84;;;17.83;39.22
50702;BME280;36670;50.094;8.496;2023-05-16T12:06:59;100502.50;;;18.07;38.93
50702;BME280;36670;50.094;8.496;2023-05-16T12:09:25;100489.94;;;18.29;38.39
50702;BME280;36670;50.094;8.496;2023-05-16T12:11:50;100492.38;;;18.36;37.83
50702;BME280;36670;50.094;8.496;2023-05-16T12:14:15;100483.00;;;18.84;38.39
50702;BME280;36670;50.094;8.496;2023-05-16T12:16:41;100482.53;;;18.57;36.17
50702;BME280;36670;50.094;8.496;2023-05-16T12:19:07;100481.94;;;18.41;36.61
50702;BME280;36670;50.094;8.496;2023-05-16T12:21:33;100483.84;;;18.46;36.99
50702;BME280;36670;50.094;8.496;2023-05-16T12:23:58;100480.09;;;19.08;35.09
50702;BME280;36670;50.094;8.496;2023-05-16T12:26:24;100484.50;;;17.95;34.99
50702;BME280;36670;50.094;8.496;2023-05-16T12:28:53;100487.53;;;17.98;35.75
50702;BME280;36670;50.094;8.496;2023-05-16T12:31:21;100490.19;;;18.52;35.55
50702;BME280;36670;50.094;8.496;2023-05-16T12:33:47;100480.28;;;18.98;35.18
50702;BME280;36670;50.094;8.496;2023-05-16T12:36:12;100493.88;;;18.66;34.55
50702;BME280;36670;50.094;8.496;2023-05-16T12:38:38;100488.72;;;18.16;34.44
50702;BME280;36670;50.094;8.496;2023-05-16T12:41:03;100477.81;;;18.15;34.32
50702;BME280;36670;50.094;8.496;2023-05-16T12:43:28;100494.88;;;18.13;36.04
50702;BME280;36670;50.094;8.496;2023-05-16T12:45:55;100487.19;;;18.24;35.99
50702;BME280;36670;50.094;8.496;2023-05-16T12:48:21;100502.91;;;18.20;35.66
50702;BME280;36670;50.094;8.496;2023-05-16T12:50:46;100501.59;;;17.64;35.38
50702;BME280;36670;50.094;8.496;2023-05-16T12:53:13;100497.34;;;17.96;35.93
50702;BME280;36670;50.094;8.496;2023-05-16T12:55:39;100500.91;;;18.01;33.90
50702;BME280;36670;50.094;8.496;2023-05-16T12:58:04;100502.75;;;17.57;35.05
50702;BME280;36670;50.094;8.496;2023-05-16T13:00:29;100500.50;;;17.60;34.26
50702;BME280;36670;50.094;8.496;2023-05-16T13:02:56;100494.63;;;18.34;35.18